createdAt,value
2022-11-19T00:00:34.759Z,945.53
2022-11-19T00:01:34.739Z,945.6
2022-11-19T00:02:34.742Z,945.64
2022-11-19T00:03:34.700Z,945.72
2022-11-19T00:04:34.676Z,945.72
2022-11-19T00:05:34.657Z,945.77
2022-11-19T00:06:34.638Z,945.73
2022-11-19T00:07:34.708Z,945.7
2022-11-19T00:08:34.596Z,945.69
2022-11-19T00:09:34.572Z,945.71
2022-11-19T00:10:34.554Z,945.67
2022-11-19T00:11:34.529Z,945.65
2022-11-19T00:12:34.510Z,945.73
2022-11-19T00:13:34.490Z,945.7
2022-11-19T00:14:34.471Z,945.72
2022-11-19T00:15:34.447Z,945.75
2022-11-19T00:16:34.430Z,945.69
2022-11-19T00:17:34.405Z,945.7
2022-11-19T00:18:34.387Z,945.65
2022-11-19T00:19:34.363Z,945.69
2022-11-19T00:20:34.344Z,945.71
2022-11-19T00:21:34.324Z,945.62
2022-11-19T00:22:34.303Z,945.62
2022-11-19T00:23:34.309Z,945.61
2022-11-19T00:24:34.260Z,945.61
2022-11-19T00:25:34.243Z,945.63
2022-11-19T00:26:34.221Z,945.67
2022-11-19T00:27:34.200Z,945.79
2022-11-19T00:28:34.179Z,945.75
2022-11-19T00:29:34.158Z,945.76
2022-11-19T00:30:47.309Z,945.78
2022-11-19T00:31:34.116Z,945.76
2022-11-19T00:32:34.096Z,945.74
2022-11-19T00:33:34.073Z,945.76
2022-11-19T00:34:34.056Z,945.79
2022-11-19T00:35:34.032Z,945.76
2022-11-19T00:36:34.012Z,945.82
2022-11-19T00:37:33.990Z,945.83
2022-11-19T00:38:33.981Z,945.85
2022-11-19T00:39:33.973Z,945.94
2022-11-19T00:40:33.927Z,945.93
2022-11-19T00:41:33.915Z,945.98
2022-11-19T00:42:33.887Z,945.88
2022-11-19T00:43:33.868Z,945.93
2022-11-19T00:44:37.100Z,945.94
2022-11-19T03:49:58.801Z,946.62
2022-11-19T03:50:58.758Z,946.58
2022-11-19T03:51:58.733Z,946.55
2022-11-19T03:53:02.860Z,946.54
2022-11-19T03:53:58.725Z,946.53
2022-11-19T03:54:58.678Z,946.53
2022-11-19T03:55:58.648Z,946.52
2022-11-19T03:56:58.626Z,946.48
2022-11-19T03:57:58.602Z,946.43
2022-11-19T03:58:58.583Z,946.42
2022-11-19T03:59:58.559Z,946.47
2022-11-19T04:00:58.539Z,946.44
2022-11-19T04:01:58.612Z,946.46
2022-11-19T04:02:58.495Z,946.48
2022-11-19T04:03:58.472Z,946.59
2022-11-19T04:04:58.453Z,946.55
2022-11-19T04:05:58.462Z,946.64
2022-11-19T04:06:58.423Z,946.61
2022-11-19T04:07:58.388Z,946.64
2022-11-19T04:08:58.369Z,946.61
2022-11-19T04:09:58.347Z,946.59
2022-11-19T04:11:58.303Z,946.58
2022-11-19T04:12:58.292Z,946.61
2022-11-19T04:13:58.262Z,946.64
2022-11-19T04:14:58.242Z,946.65
2022-11-19T04:15:58.218Z,946.68
2022-11-19T04:16:58.200Z,946.69
2022-11-19T04:17:58.177Z,946.71
2022-11-19T04:18:58.156Z,946.66
2022-11-19T04:19:58.134Z,946.72
2022-11-19T04:20:58.115Z,946.7
2022-11-19T04:21:58.117Z,946.71
2022-11-19T04:22:58.070Z,946.74
2022-11-19T04:23:58.049Z,946.77
2022-11-19T04:24:58.033Z,946.79
2022-11-19T04:25:58.006Z,946.83
2022-11-19T04:26:57.988Z,946.89
2022-11-19T04:27:57.965Z,946.88
2022-11-19T04:28:57.946Z,946.88
2022-11-19T04:29:57.926Z,946.89
2022-11-19T04:30:57.901Z,946.9
2022-11-19T04:31:57.879Z,946.92
2022-11-19T04:32:57.860Z,946.89
2022-11-19T04:33:57.840Z,946.9
2022-11-19T04:34:57.816Z,946.86
2022-11-19T04:35:57.795Z,946.85
2022-11-19T04:36:57.774Z,946.86
2022-11-19T04:37:57.775Z,946.82
2022-11-19T04:38:57.733Z,946.83
2022-11-19T04:39:57.711Z,946.81
2022-11-19T04:40:57.687Z,946.85
2022-11-19T04:41:57.668Z,946.84
2022-11-19T04:42:57.645Z,946.88
2022-11-19T04:43:57.624Z,946.85
2022-11-19T04:44:57.603Z,946.86
2022-11-19T04:45:57.583Z,946.83
2022-11-19T04:46:57.561Z,946.86
2022-11-19T04:47:57.542Z,946.84
2022-11-19T04:48:57.518Z,946.84
2022-11-19T04:49:57.498Z,946.84
2022-11-19T04:50:57.476Z,946.87
2022-11-19T04:51:57.456Z,946.88
2022-11-19T04:52:57.435Z,946.85
2022-11-19T04:53:57.441Z,946.87
2022-11-19T04:54:57.389Z,946.9
2022-11-19T04:55:57.370Z,946.87
2022-11-19T04:56:57.350Z,946.9
2022-11-19T04:57:57.332Z,946.94
2022-11-19T04:58:57.304Z,946.98
2022-11-19T04:59:57.286Z,946.95
2022-11-19T05:00:57.264Z,946.98
2022-11-19T05:01:57.299Z,946.99
2022-11-19T05:02:57.224Z,947.03
2022-11-19T05:03:57.201Z,947.01
2022-11-19T05:04:57.180Z,946.97
2022-11-19T05:05:57.158Z,947.02
2022-11-19T05:06:57.175Z,947
2022-11-19T05:07:57.123Z,947.04
2022-11-19T05:08:57.096Z,947.04
2022-11-19T05:09:57.104Z,947.03
2022-11-19T05:10:57.052Z,947.01
2022-11-19T05:11:57.034Z,946.98
2022-11-19T05:12:57.011Z,946.96
2022-11-19T05:13:56.988Z,946.95
2022-11-19T05:14:56.968Z,946.96
2022-11-19T05:15:56.947Z,946.91
2022-11-19T05:16:56.923Z,946.95
2022-11-19T05:17:56.905Z,946.98
2022-11-19T05:18:56.885Z,946.96
2022-11-19T05:19:56.864Z,946.98
2022-11-19T05:20:56.841Z,947
2022-11-19T05:21:56.821Z,947
2022-11-19T05:22:56.797Z,946.95
2022-11-19T05:23:56.779Z,946.97
2022-11-19T05:24:56.757Z,946.95
2022-11-19T05:25:56.764Z,946.95
2022-11-19T05:26:56.714Z,946.98
2022-11-19T05:27:56.694Z,946.99
2022-11-19T05:28:56.670Z,946.99
2022-11-19T05:29:56.652Z,947.02
2022-11-19T05:30:56.631Z,946.96
2022-11-19T05:31:56.608Z,946.96
2022-11-19T05:32:56.588Z,946.99
2022-11-19T05:33:56.565Z,947.03
2022-11-19T05:34:56.546Z,947.01
2022-11-19T05:35:56.525Z,947.07
2022-11-19T05:36:56.504Z,947.05
2022-11-19T05:37:56.481Z,947.02
2022-11-19T05:38:56.461Z,947.02
2022-11-19T05:39:56.438Z,947.03
2022-11-19T05:40:56.420Z,946.99
2022-11-19T05:41:56.425Z,947.03
2022-11-19T05:42:56.378Z,946.99
2022-11-19T05:43:56.355Z,947.08
2022-11-19T05:44:56.336Z,947.07
2022-11-19T05:45:56.312Z,947.05
2022-11-19T05:46:56.295Z,947.09
2022-11-19T05:47:56.272Z,947.08
2022-11-19T05:48:56.253Z,947.13
2022-11-19T05:49:56.231Z,947.08
2022-11-19T05:50:56.211Z,947.03
2022-11-19T05:51:56.188Z,947.03
2022-11-19T05:52:56.168Z,947.08
2022-11-19T05:53:56.177Z,947.06
2022-11-19T05:54:56.128Z,947.07
2022-11-19T05:55:56.109Z,947.11
2022-11-19T05:56:56.084Z,947.1
2022-11-19T05:57:56.085Z,947.09
2022-11-19T05:58:56.042Z,947.1
2022-11-19T05:59:56.023Z,947.15
2022-11-19T06:00:56.039Z,947.19
2022-11-19T06:01:55.978Z,947.21
2022-11-19T06:02:56.006Z,947.24
2022-11-19T06:03:55.937Z,947.25
2022-11-19T06:04:55.915Z,947.22
2022-11-19T06:05:55.892Z,947.32
2022-11-19T06:06:55.900Z,947.31
2022-11-19T06:07:55.851Z,947.31
2022-11-19T06:08:55.831Z,947.27
2022-11-19T06:09:55.809Z,947.24
2022-11-19T06:10:55.793Z,947.15
2022-11-19T06:11:55.768Z,947.11
2022-11-19T06:12:55.748Z,947.14
2022-11-19T06:13:55.749Z,947.17
2022-11-19T06:14:55.714Z,947.21
2022-11-19T06:15:55.681Z,947.19
2022-11-19T06:16:55.664Z,947.23
2022-11-19T06:17:55.643Z,947.23
2022-11-19T06:18:55.621Z,947.22
2022-11-19T06:19:55.599Z,947.22
2022-11-19T06:20:55.580Z,947.23
2022-11-19T06:21:55.557Z,947.25
2022-11-19T06:22:55.537Z,947.31
2022-11-19T06:23:55.516Z,947.32
2022-11-19T06:24:55.495Z,947.3
2022-11-19T06:25:55.479Z,947.31
2022-11-19T06:26:55.451Z,947.3
2022-11-19T06:27:55.431Z,947.34
2022-11-19T06:28:55.408Z,947.41
2022-11-19T06:29:56.415Z,947.38
2022-11-19T06:30:55.368Z,947.4
2022-11-19T06:31:55.347Z,947.34
2022-11-19T06:32:55.326Z,947.39
2022-11-19T06:33:55.305Z,947.39
2022-11-19T06:34:55.285Z,947.41
2022-11-19T06:35:55.263Z,947.36
2022-11-19T06:36:55.243Z,947.31
2022-11-19T06:37:55.224Z,947.3
2022-11-19T06:38:55.199Z,947.3
2022-11-19T06:39:55.181Z,947.26
2022-11-19T06:40:55.156Z,947.25
2022-11-19T06:41:55.136Z,947.24
2022-11-19T06:42:55.114Z,947.26
2022-11-19T06:43:55.095Z,947.2
2022-11-19T06:44:55.073Z,947.23
2022-11-19T06:45:55.077Z,947.25
2022-11-19T06:46:55.031Z,947.28
2022-11-19T06:47:55.013Z,947.28
2022-11-19T06:48:54.989Z,947.31
2022-11-19T06:49:54.970Z,947.33
2022-11-19T06:50:55.026Z,947.39
2022-11-19T06:51:55.008Z,947.4
2022-11-19T06:52:54.984Z,947.37
2022-11-19T06:53:54.963Z,947.4
2022-11-19T06:54:54.942Z,947.37
2022-11-19T06:55:54.922Z,947.39
2022-11-19T06:56:54.902Z,947.33
2022-11-19T06:57:54.881Z,947.36
2022-11-19T06:58:54.858Z,947.39
2022-11-19T06:59:54.843Z,947.35
2022-11-19T07:00:54.817Z,947.43
2022-11-19T07:01:54.852Z,947.37
2022-11-19T07:02:54.776Z,947.39
2022-11-19T07:03:54.754Z,947.47
2022-11-19T07:04:54.733Z,947.48
2022-11-19T07:05:54.718Z,947.51
2022-11-19T07:06:54.806Z,947.55
2022-11-19T07:07:57.699Z,947.59
2022-11-19T07:08:54.648Z,947.62
2022-11-19T07:09:54.628Z,947.6
2022-11-19T07:10:54.607Z,947.56
2022-11-19T07:11:54.586Z,947.57
2022-11-19T07:12:54.565Z,947.57
2022-11-19T07:13:54.545Z,947.53
2022-11-19T07:14:56.570Z,947.49
2022-11-19T07:15:54.502Z,947.5
2022-11-19T07:16:54.481Z,947.52
2022-11-19T07:17:54.490Z,947.56
2022-11-19T07:18:54.441Z,947.62
2022-11-19T07:19:54.418Z,947.63
2022-11-19T07:20:54.399Z,947.66
2022-11-19T07:21:54.375Z,947.6
2022-11-19T07:22:58.873Z,947.6
2022-11-19T07:23:54.333Z,947.58
2022-11-19T07:24:54.313Z,947.6
2022-11-19T07:25:54.292Z,947.59
2022-11-19T07:26:54.272Z,947.62
2022-11-19T07:27:54.249Z,947.63
2022-11-19T07:28:54.229Z,947.65
2022-11-19T07:29:54.205Z,947.68
2022-11-19T07:30:54.187Z,947.74
2022-11-19T07:31:55.054Z,947.78
2022-11-19T07:32:55.036Z,947.86
2022-11-19T07:33:55.143Z,947.8
2022-11-19T07:34:54.994Z,947.83
2022-11-19T07:35:54.970Z,947.84
2022-11-19T07:36:54.953Z,947.87
2022-11-19T07:37:54.927Z,947.86
2022-11-19T07:38:54.909Z,947.88
2022-11-19T07:39:54.888Z,947.9
2022-11-19T07:40:54.866Z,947.87
2022-11-19T07:41:54.845Z,947.84
2022-11-19T07:42:54.825Z,947.87
2022-11-19T07:43:54.802Z,947.86
2022-11-19T07:44:55.215Z,947.86
2022-11-19T07:45:54.761Z,947.83
2022-11-19T07:46:54.741Z,947.87
2022-11-19T07:47:54.719Z,947.85
2022-11-19T07:48:54.700Z,947.88
2022-11-19T07:49:54.705Z,947.91
2022-11-19T07:50:56.541Z,947.87
2022-11-19T07:51:54.640Z,947.91
2022-11-19T07:52:54.617Z,947.85
2022-11-19T07:53:54.597Z,947.87
2022-11-19T07:54:54.575Z,947.84
2022-11-19T07:55:54.555Z,947.86
2022-11-19T07:56:54.535Z,947.86
2022-11-19T07:57:54.515Z,947.82
2022-11-19T07:58:54.493Z,947.87
2022-11-19T07:59:54.468Z,947.88
2022-11-19T08:00:54.450Z,947.91
2022-11-19T08:01:54.467Z,947.96
2022-11-19T08:02:54.409Z,947.97
2022-11-19T08:03:56.476Z,947.99
2022-11-19T08:04:54.368Z,947.98
2022-11-19T08:05:54.369Z,948.02
2022-11-19T08:06:54.324Z,948.01
2022-11-19T08:07:54.304Z,948.04
2022-11-19T08:08:54.282Z,948.02
2022-11-19T08:09:54.263Z,948
2022-11-19T08:10:54.246Z,948.04
2022-11-19T08:11:54.222Z,948.02
2022-11-19T08:12:54.199Z,948.04
2022-11-19T08:13:54.179Z,948.11
2022-11-19T08:14:54.158Z,948.08
2022-11-19T08:15:54.139Z,948.09
2022-11-19T08:16:54.116Z,948.11
2022-11-19T08:17:54.096Z,948.09
2022-11-19T08:18:54.075Z,948.08
2022-11-19T08:19:54.055Z,948.01
2022-11-19T08:20:54.033Z,948.07
2022-11-19T08:21:54.038Z,948.07
2022-11-19T08:22:53.991Z,948.06
2022-11-19T08:23:53.974Z,948.06
2022-11-19T08:24:53.952Z,948.13
2022-11-19T08:25:53.930Z,948.11
2022-11-19T08:26:53.907Z,948.13
2022-11-19T08:27:53.892Z,948.09
2022-11-19T08:28:53.867Z,948.11
2022-11-19T08:29:53.857Z,948.14
2022-11-19T08:30:53.827Z,948.08
2022-11-19T08:31:53.808Z,948.1
2022-11-19T08:32:53.794Z,948.06
2022-11-19T08:33:53.773Z,948.07
2022-11-19T08:34:53.757Z,948.05
2022-11-19T08:35:53.986Z,948.05
2022-11-19T08:36:53.967Z,948.08
2022-11-19T08:37:53.978Z,948.05
2022-11-19T08:38:53.923Z,948.04
2022-11-19T08:39:53.909Z,948.04
2022-11-19T08:40:53.884Z,948.01
2022-11-19T08:41:53.865Z,947.96
2022-11-19T08:42:53.842Z,947.93
2022-11-19T08:43:53.823Z,947.89
2022-11-19T08:44:53.802Z,947.9
2022-11-19T08:45:53.806Z,947.9
2022-11-19T08:46:53.761Z,947.95
2022-11-19T08:47:53.743Z,947.97
2022-11-19T08:48:53.721Z,947.98
2022-11-19T08:49:53.703Z,948.01
2022-11-19T08:50:53.683Z,948.06
2022-11-19T08:51:53.661Z,948.08
2022-11-19T08:52:53.639Z,948.1
2022-11-19T08:53:53.648Z,948.11
2022-11-19T08:54:53.607Z,948.11
2022-11-19T08:55:53.582Z,948.07
2022-11-19T08:56:53.563Z,948.1
2022-11-19T08:57:53.540Z,948.04
2022-11-19T08:58:54.094Z,948.07
2022-11-19T08:59:53.500Z,948.07
2022-11-19T09:00:53.518Z,948.09
2022-11-19T09:01:53.460Z,948.1
2022-11-19T09:02:53.442Z,948.08
2022-11-19T09:03:53.417Z,948.14
2022-11-19T09:04:53.398Z,948.15
2022-11-19T09:05:53.378Z,948.2
2022-11-19T09:06:53.359Z,948.24
2022-11-19T09:07:53.336Z,948.2
2022-11-19T09:08:53.318Z,948.24
2022-11-19T09:09:53.321Z,948.25
2022-11-19T09:10:53.305Z,948.17
2022-11-19T09:11:53.255Z,948.15
2022-11-19T09:12:53.237Z,948.16
2022-11-19T09:13:53.216Z,948.22
2022-11-19T09:14:53.196Z,948.21
2022-11-19T09:15:53.175Z,948.23
2022-11-19T09:16:53.155Z,948.24
2022-11-19T09:17:53.136Z,948.29
2022-11-19T09:18:53.915Z,948.29
2022-11-19T09:19:53.885Z,948.34
2022-11-19T09:20:53.866Z,948.34
2022-11-19T09:21:53.843Z,948.36
2022-11-19T09:22:53.825Z,948.36
2022-11-19T09:23:53.804Z,948.34
2022-11-19T09:24:53.784Z,948.36
2022-11-19T09:25:53.792Z,948.35
2022-11-19T09:26:55.411Z,948.37
2022-11-19T09:27:53.721Z,948.38
2022-11-19T09:28:53.709Z,948.33
2022-11-19T09:29:53.681Z,948.4
2022-11-19T09:30:53.664Z,948.38
2022-11-19T09:31:53.642Z,948.41
2022-11-19T09:32:53.623Z,948.42
2022-11-19T09:33:53.602Z,948.42
2022-11-19T09:34:53.582Z,948.43
2022-11-19T09:35:53.559Z,948.43
2022-11-19T09:36:53.541Z,948.46
2022-11-19T09:37:53.520Z,948.45
2022-11-19T09:38:53.500Z,948.51
2022-11-19T09:39:53.480Z,948.54
2022-11-19T09:40:53.461Z,948.58
2022-11-19T09:41:53.461Z,948.56
2022-11-19T09:42:53.421Z,948.56
2022-11-19T09:43:53.399Z,948.56
2022-11-19T09:44:53.379Z,948.59
2022-11-19T09:45:53.356Z,948.6
2022-11-19T09:46:53.338Z,948.64
2022-11-19T09:47:53.316Z,948.63
2022-11-19T09:48:53.317Z,948.64
2022-11-19T09:49:53.278Z,948.59
2022-11-19T09:50:53.747Z,948.6
2022-11-19T09:51:53.239Z,948.55
2022-11-19T09:52:53.215Z,948.52
2022-11-19T09:53:53.196Z,948.58
2022-11-19T09:54:53.186Z,948.57
2022-11-19T09:55:53.158Z,948.52
2022-11-19T09:56:53.135Z,948.5
2022-11-19T09:57:53.206Z,948.47
2022-11-19T09:58:53.094Z,948.47
2022-11-19T09:59:53.077Z,948.45
2022-11-19T10:00:53.055Z,948.47
2022-11-19T10:01:53.036Z,948.46
2022-11-19T10:02:53.076Z,948.42
2022-11-19T10:03:52.997Z,948.37
2022-11-19T10:04:52.974Z,948.38
2022-11-19T10:05:52.955Z,948.4
2022-11-19T10:06:52.934Z,948.42
2022-11-19T10:07:52.918Z,948.38
2022-11-19T10:08:52.893Z,948.37
2022-11-19T10:09:52.876Z,948.32
2022-11-19T10:10:52.855Z,948.27
2022-11-19T10:11:52.835Z,948.3
2022-11-19T10:12:52.817Z,948.33
2022-11-19T10:13:52.830Z,948.3
2022-11-19T10:14:52.774Z,948.34
2022-11-19T10:15:52.756Z,948.34
2022-11-19T10:16:52.734Z,948.37
2022-11-19T10:17:52.716Z,948.36
2022-11-19T10:18:52.740Z,948.4
2022-11-19T10:19:52.676Z,948.34
2022-11-19T10:20:52.659Z,948.32
2022-11-19T10:21:52.639Z,948.31
2022-11-19T10:22:57.071Z,948.33
2022-11-19T10:23:52.601Z,948.35
2022-11-19T10:24:52.577Z,948.32
2022-11-19T10:25:52.560Z,948.32
2022-11-19T10:26:52.536Z,948.35
2022-11-19T10:27:52.520Z,948.37
2022-11-19T10:28:52.498Z,948.34
2022-11-19T10:29:52.502Z,948.3
2022-11-19T10:30:52.458Z,948.27
2022-11-19T10:31:52.440Z,948.29
2022-11-19T10:32:52.420Z,948.28
2022-11-19T10:33:52.399Z,948.29
2022-11-19T10:34:52.382Z,948.26
2022-11-19T10:35:52.361Z,948.27
2022-11-19T10:36:52.341Z,948.28
2022-11-19T10:37:52.323Z,948.28
2022-11-19T10:38:52.302Z,948.22
2022-11-19T10:39:52.286Z,948.23
2022-11-19T10:40:52.263Z,948.16
2022-11-19T10:41:52.243Z,948.17
2022-11-19T10:42:52.226Z,948.17
2022-11-19T10:43:52.205Z,948.1
2022-11-19T10:44:52.185Z,948.1
2022-11-19T10:45:52.192Z,948.1
2022-11-19T10:46:52.145Z,948.07
2022-11-19T10:47:52.124Z,948.06
2022-11-19T10:48:52.110Z,948.06
2022-11-19T10:49:52.085Z,948.06
2022-11-19T10:50:52.069Z,948.05
2022-11-19T10:51:52.047Z,948.04
2022-11-19T10:52:52.030Z,948.01
2022-11-19T10:53:52.007Z,948
2022-11-19T10:54:51.989Z,948.01
2022-11-19T10:55:54.595Z,947.94
2022-11-19T10:56:51.949Z,947.94
2022-11-19T10:57:51.929Z,947.93
2022-11-19T10:58:51.911Z,947.89
2022-11-19T10:59:51.892Z,947.84
2022-11-19T11:00:51.929Z,947.86
2022-11-19T11:01:51.875Z,947.89
2022-11-19T11:02:51.835Z,947.88
2022-11-19T11:03:51.813Z,947.88
2022-11-19T11:04:51.795Z,947.92
2022-11-19T11:05:51.773Z,947.88
2022-11-19T11:06:51.755Z,947.84
2022-11-19T11:07:51.810Z,947.82
2022-11-19T11:08:51.715Z,947.78
2022-11-19T11:09:51.694Z,947.76
2022-11-19T11:10:51.677Z,947.8
2022-11-19T11:11:51.655Z,947.73
2022-11-19T11:12:51.639Z,947.74
2022-11-19T11:13:51.619Z,947.74
2022-11-19T11:14:51.601Z,947.71
2022-11-19T11:15:51.579Z,947.74
2022-11-19T11:16:51.561Z,947.72
2022-11-19T11:17:51.568Z,947.75
2022-11-19T11:18:51.524Z,947.76
2022-11-19T11:19:51.502Z,947.78
2022-11-19T11:20:51.484Z,947.78
2022-11-19T11:21:51.463Z,947.77
2022-11-19T11:22:51.444Z,947.74
2022-11-19T11:23:51.424Z,947.74
2022-11-19T11:24:51.405Z,947.71
2022-11-19T11:25:51.384Z,947.76
2022-11-19T11:26:51.369Z,947.76
2022-11-19T11:27:51.349Z,947.78
2022-11-19T11:28:51.327Z,947.72
2022-11-19T11:29:51.309Z,947.75
2022-11-19T11:30:51.287Z,947.76
2022-11-19T11:31:51.269Z,947.73
2022-11-19T11:32:51.248Z,947.73
2022-11-19T11:33:51.262Z,947.78
2022-11-19T11:34:51.209Z,947.75
2022-11-19T11:35:51.193Z,947.72
2022-11-19T11:36:51.170Z,947.71
2022-11-19T11:37:51.150Z,947.72
2022-11-19T11:38:51.128Z,947.71
2022-11-19T11:39:51.111Z,947.69
2022-11-19T11:40:56.267Z,947.71
2022-11-19T11:42:18.222Z,947.75
2022-11-19T11:43:17.992Z,947.71
2022-11-19T11:44:17.974Z,947.74
2022-11-19T11:45:18.020Z,947.8
2022-11-19T11:46:17.936Z,947.74
2022-11-19T11:47:17.915Z,947.8
2022-11-19T11:48:17.895Z,947.76
2022-11-19T11:49:17.900Z,947.81
2022-11-19T11:50:17.855Z,947.82
2022-11-19T11:51:17.835Z,947.85
2022-11-19T11:52:17.817Z,947.82
2022-11-19T11:53:18.752Z,947.85
2022-11-19T11:54:18.793Z,947.86
2022-11-19T11:55:18.821Z,947.83
2022-11-19T11:56:18.692Z,947.85
2022-11-19T11:57:18.670Z,947.86
2022-11-19T11:58:18.653Z,947.85
2022-11-19T11:59:18.954Z,947.84
2022-11-19T12:00:18.613Z,947.83
2022-11-19T12:01:18.595Z,947.8
2022-11-19T12:02:18.600Z,947.8
2022-11-19T12:03:18.550Z,947.79
2022-11-19T12:04:18.531Z,947.82
2022-11-19T12:05:18.634Z,947.81
2022-11-19T12:06:18.490Z,947.8
2022-11-19T12:07:18.509Z,947.82
2022-11-19T12:08:21.702Z,947.84
2022-11-19T12:09:18.721Z,947.83
2022-11-19T12:10:18.414Z,947.85
2022-11-19T12:11:18.389Z,947.87
2022-11-19T12:12:18.368Z,947.89
2022-11-19T12:13:18.347Z,947.82
2022-11-19T12:14:18.329Z,947.83
2022-11-19T12:15:18.308Z,947.87
2022-11-19T12:16:18.286Z,947.84
2022-11-19T12:17:18.266Z,947.77
2022-11-19T12:18:18.248Z,947.83
2022-11-19T12:19:18.455Z,947.82
2022-11-19T12:20:18.205Z,947.81
2022-11-19T12:21:18.211Z,947.85
2022-11-19T12:22:18.164Z,947.86
2022-11-19T12:23:18.145Z,947.89
2022-11-19T12:24:18.121Z,947.95
2022-11-19T12:25:18.102Z,947.96
2022-11-19T12:26:18.082Z,947.97
2022-11-19T12:27:18.061Z,947.99
2022-11-19T12:28:18.040Z,947.94
2022-11-19T12:29:18.195Z,947.98
2022-11-19T12:30:17.997Z,948
2022-11-19T12:31:17.979Z,947.96
2022-11-19T12:32:17.957Z,947.95
2022-11-19T12:33:17.938Z,948
2022-11-19T12:34:17.915Z,948
2022-11-19T12:35:17.899Z,948.01
2022-11-19T12:36:17.875Z,948.09
2022-11-19T12:37:17.878Z,948.01
2022-11-19T12:38:17.835Z,948.01
2022-11-19T12:39:18.223Z,948.05
2022-11-19T12:40:17.796Z,948.06
2022-11-19T12:41:17.776Z,948.06
2022-11-19T12:42:17.752Z,948.08
2022-11-19T12:43:17.741Z,948.08
2022-11-19T12:44:17.712Z,948.04
2022-11-19T12:45:17.691Z,948.07
2022-11-19T12:46:17.672Z,948.02
2022-11-19T12:47:17.651Z,948.04
2022-11-19T12:48:17.629Z,948.01
2022-11-19T12:49:18.041Z,948.01
2022-11-19T12:50:17.589Z,948.04
2022-11-19T12:51:17.569Z,948.01
2022-11-19T12:52:17.548Z,948.05
2022-11-19T12:53:17.551Z,948.03
2022-11-19T12:54:20.856Z,948.07
2022-11-19T12:55:17.487Z,948.06
2022-11-19T12:56:17.464Z,948.03
2022-11-19T12:57:17.449Z,948.06
2022-11-19T12:58:17.427Z,948.04
2022-11-19T12:59:17.788Z,948.03
2022-11-19T13:00:17.383Z,948.02
2022-11-19T13:01:17.393Z,948.02
2022-11-19T13:02:17.341Z,947.99
2022-11-19T13:03:17.324Z,947.98
2022-11-19T13:04:17.299Z,948.01
2022-11-19T13:05:17.281Z,948.06
2022-11-19T13:06:18.114Z,948.04
2022-11-19T13:07:17.282Z,947.99
2022-11-19T13:08:17.217Z,948.01
2022-11-19T13:09:17.523Z,948.01
2022-11-19T13:10:17.177Z,947.98
2022-11-19T13:11:17.158Z,947.98
2022-11-19T13:12:17.138Z,947.94
2022-11-19T13:13:17.117Z,947.95
2022-11-19T13:14:17.289Z,947.94
2022-11-19T13:15:17.267Z,947.93
2022-11-19T13:16:17.247Z,947.96
2022-11-19T13:17:17.225Z,947.95
2022-11-19T13:18:17.205Z,947.97
2022-11-19T13:19:17.536Z,948.01
2022-11-19T13:20:17.167Z,947.97
2022-11-19T13:21:17.144Z,947.99
2022-11-19T13:22:17.126Z,947.99
2022-11-19T13:23:17.103Z,947.96
2022-11-19T13:24:17.083Z,947.99
2022-11-19T13:25:17.091Z,947.97
2022-11-19T13:26:17.044Z,947.98
2022-11-19T13:27:21.834Z,947.92
2022-11-19T13:28:17.002Z,947.91
2022-11-19T13:29:17.017Z,947.95
2022-11-19T13:30:16.959Z,947.87
2022-11-19T13:31:16.939Z,947.87
2022-11-19T13:32:16.919Z,947.87
2022-11-19T13:33:16.898Z,947.84
2022-11-19T13:34:16.879Z,947.86
2022-11-19T13:35:16.876Z,947.83
2022-11-19T13:36:16.838Z,947.83
2022-11-19T13:37:16.817Z,947.84
2022-11-19T13:38:16.798Z,947.82
2022-11-19T13:39:16.777Z,947.9
2022-11-19T13:40:16.758Z,947.88
2022-11-19T13:41:16.831Z,947.87
2022-11-19T13:42:16.716Z,947.86
2022-11-19T13:43:31.376Z,947.85
2022-11-19T13:44:16.676Z,947.86
2022-11-19T13:45:16.656Z,947.89
2022-11-19T13:46:16.643Z,947.91
2022-11-19T13:47:16.614Z,947.89
2022-11-19T13:48:16.596Z,947.91
2022-11-19T13:49:16.575Z,947.84
2022-11-19T13:50:16.554Z,947.88
2022-11-19T13:51:16.533Z,947.85
2022-11-19T13:52:16.516Z,947.9
2022-11-19T13:53:16.493Z,947.88
2022-11-19T13:54:16.473Z,947.87
2022-11-19T13:55:16.452Z,947.91
2022-11-19T13:56:16.430Z,947.87
2022-11-19T13:57:16.441Z,947.88
2022-11-19T13:58:16.393Z,947.89
2022-11-19T13:59:16.371Z,947.91
2022-11-19T14:00:16.350Z,947.9
2022-11-19T14:01:16.351Z,947.9
2022-11-19T14:02:16.311Z,947.93
2022-11-19T14:03:16.289Z,947.88
2022-11-19T14:04:16.269Z,947.85
2022-11-19T14:05:16.248Z,947.88
2022-11-19T14:06:16.229Z,947.86
2022-11-19T14:07:16.258Z,947.91
2022-11-19T14:08:16.187Z,947.83
2022-11-19T14:09:16.172Z,947.86
2022-11-19T14:10:16.145Z,947.85
2022-11-19T14:11:16.125Z,947.79
2022-11-19T14:12:16.103Z,947.83
2022-11-19T14:13:16.116Z,947.83
2022-11-19T14:14:16.062Z,947.84
2022-11-19T14:15:16.044Z,947.81
2022-11-19T14:16:16.021Z,947.83
2022-11-19T14:17:16.005Z,947.89
2022-11-19T14:18:15.981Z,947.85
2022-11-19T14:19:15.964Z,947.87
2022-11-19T14:20:15.939Z,947.84
2022-11-19T14:21:15.924Z,947.81
2022-11-19T14:22:15.899Z,947.84
2022-11-19T14:23:15.881Z,947.86
2022-11-19T14:24:15.859Z,947.86
2022-11-19T14:25:15.841Z,947.87
2022-11-19T14:26:15.818Z,947.86
2022-11-19T14:27:15.798Z,947.88
2022-11-19T14:28:15.777Z,947.86
2022-11-19T14:29:15.798Z,947.84
2022-11-19T14:30:15.751Z,947.83
2022-11-19T14:31:15.716Z,947.9
2022-11-19T14:32:15.695Z,947.86
2022-11-19T14:33:15.674Z,947.86
2022-11-19T14:34:15.653Z,947.88
2022-11-19T14:35:15.634Z,947.84
2022-11-19T14:36:15.613Z,947.88
2022-11-19T14:37:15.593Z,947.83
2022-11-19T14:38:15.573Z,947.82
2022-11-19T14:39:15.551Z,947.82
2022-11-19T14:40:15.530Z,947.86
2022-11-19T14:41:15.509Z,947.86
2022-11-19T14:42:15.488Z,947.83
2022-11-19T14:43:15.469Z,947.83
2022-11-19T14:44:15.448Z,947.86
2022-11-19T14:45:15.458Z,947.86
2022-11-19T14:46:15.407Z,947.83
2022-11-19T14:47:15.386Z,947.83
2022-11-19T14:48:15.376Z,947.83
2022-11-19T14:49:15.372Z,947.81
2022-11-19T14:50:15.324Z,947.82
2022-11-19T14:51:15.304Z,947.81
2022-11-19T14:52:15.286Z,947.81
2022-11-19T14:53:15.264Z,947.82
2022-11-19T14:54:15.244Z,947.82
2022-11-19T14:55:15.221Z,947.83
2022-11-19T14:56:15.200Z,947.84
2022-11-19T14:57:15.177Z,947.87
2022-11-19T14:58:15.158Z,947.82
2022-11-19T14:59:15.137Z,947.83
2022-11-19T15:00:15.116Z,947.85
2022-11-19T15:01:19.571Z,947.83
2022-11-19T15:02:15.075Z,947.85
2022-11-19T15:03:15.147Z,947.86
2022-11-19T15:04:15.037Z,947.88
2022-11-19T15:05:15.010Z,947.85
2022-11-19T15:06:14.992Z,947.87
2022-11-19T15:07:15.020Z,947.91
2022-11-19T15:08:14.951Z,947.92
2022-11-19T15:09:14.926Z,947.94
2022-11-19T15:10:14.910Z,948
2022-11-19T15:11:14.886Z,947.96
2022-11-19T15:12:14.866Z,947.98
2022-11-19T15:13:14.844Z,948.02
2022-11-19T15:14:14.824Z,948
2022-11-19T15:15:14.803Z,947.99
2022-11-19T15:16:14.782Z,947.99
2022-11-19T15:17:14.795Z,947.97
2022-11-19T15:18:14.742Z,947.96
2022-11-19T15:19:14.718Z,947.98
2022-11-19T15:20:14.698Z,948.04
2022-11-19T15:21:14.675Z,947.98
2022-11-19T15:22:14.656Z,947.95
2022-11-19T15:23:14.632Z,947.98
2022-11-19T15:24:14.615Z,947.92
2022-11-19T15:25:15.214Z,947.95
2022-11-19T15:26:14.583Z,947.93
2022-11-19T15:27:14.554Z,947.95
2022-11-19T15:28:14.532Z,947.89
2022-11-19T15:29:14.507Z,947.91
2022-11-19T15:30:14.493Z,947.87
2022-11-19T15:31:14.464Z,947.9
2022-11-19T15:32:14.445Z,947.91
2022-11-19T15:33:14.451Z,947.86
2022-11-19T15:34:14.403Z,947.85
2022-11-19T15:35:14.381Z,947.86
2022-11-19T15:36:14.360Z,947.85
2022-11-19T15:37:14.795Z,947.88